sensor_id;sensor_type;location;lat;lon;timestamp;P1;durP1;ratioP1;P2;durP2;ratioP2
15878;SDS011;61999;51.514;14.614;2023-02-15T00:00:14;24.83;;;15.57;;
15878;SDS011;61999;51.514;14.614;2023-02-15T00:02:43;29.27;;;15.30;;
15878;SDS011;61999;51.514;14.614;2023-02-15T00:05:12;27.23;;;15.90;;
15878;SDS011;61999;51.514;14.614;2023-02-15T00:07:40;24.73;;;14.17;;
15878;SDS011;61999;51.514;14.614;2023-02-15T00:10:08;25.83;;;15.10;;
15878;SDS011;61999;51.514;14.614;2023-02-15T00:12:38;25.47;;;15.53;;
15878;SDS011;61999;51.514;14.614;2023-02-15T00:15:06;27.60;;;16.70;;
15878;SDS011;61999;51.514;14.614;2023-02-15T00:17:35;24.63;;;14.60;;
15878;SDS011;61999;51.514;14.614;2023-02-15T00:20:03;26.03;;;15.43;;
15878;SDS011;61999;51.514;14.614;2023-02-15T00:22:33;26.00;;;16.23;;
15878;SDS011;61999;51.514;14.614;2023-02-15T00:25:01;28.20;;;15.40;;
15878;SDS011;61999;51.514;14.614;2023-02-15T00:27:30;27.50;;;15.50;;
15878;SDS011;61999;51.514;14.614;2023-02-15T00:29:58;28.60;;;16.53;;
15878;SDS011;61999;51.514;14.614;2023-02-15T00:32:26;28.73;;;16.03;;
15878;SDS011;61999;51.514;14.614;2023-02-15T00:34:54;26.20;;;15.43;;
15878;SDS011;61999;51.514;14.614;2023-02-15T00:37:22;22.23;;;14.37;;
15878;SDS011;61999;51.514;14.614;2023-02-15T00:39:51;26.63;;;14.83;;
15878;SDS011;61999;51.514;14.614;2023-02-15T00:42:19;26.13;;;15.53;;
15878;SDS011;61999;51.514;14.614;2023-02-15T00:44:47;24.67;;;14.90;;
15878;SDS011;61999;51.514;14.614;2023-02-15T00:47:15;21.97;;;13.13;;
15878;SDS011;61999;51.514;14.614;2023-02-15T00:49:43;22.33;;;13.40;;
15878;SDS011;61999;51.514;14.614;2023-02-15T00:52:11;24.93;;;14.03;;
15878;SDS011;61999;51.514;14.614;2023-02-15T00:54:39;25.83;;;14.53;;
15878;SDS011;61999;51.514;14.614;2023-02-15T00:57:08;26.03;;;14.40;;
15878;SDS011;61999;51.514;14.614;2023-02-15T00:59:36;27.87;;;14.97;;
15878;SDS011;61999;51.514;14.614;2023-02-15T01:02:04;30.40;;;15.77;;
15878;SDS011;61999;51.514;14.614;2023-02-15T01:04:32;28.60;;;16.30;;
15878;SDS011;61999;51.514;14.614;2023-02-15T01:07:00;28.13;;;15.80;;
15878;SDS011;61999;51.514;14.614;2023-02-15T01:09:29;29.03;;;17.10;;
15878;SDS011;61999;51.514;14.614;2023-02-15T01:11:57;29.53;;;17.87;;
15878;SDS011;61999;51.514;14.614;2023-02-15T01:14:27;35.07;;;19.60;;
15878;SDS011;61999;51.514;14.614;2023-02-15T01:16:55;30.50;;;17.77;;
15878;SDS011;61999;51.514;14.614;2023-02-15T01:19:23;33.23;;;16.30;;
15878;SDS011;61999;51.514;14.614;2023-02-15T01:21:51;27.43;;;15.63;;
15878;SDS011;61999;51.514;14.614;2023-02-15T01:24:19;26.43;;;14.83;;
15878;SDS011;61999;51.514;14.614;2023-02-15T01:26:46;27.57;;;15.50;;
15878;SDS011;61999;51.514;14.614;2023-02-15T01:29:14;26.23;;;14.70;;
15878;SDS011;61999;51.514;14.614;2023-02-15T01:31:44;27.47;;;15.83;;
15878;SDS011;61999;51.514;14.614;2023-02-15T01:34:12;24.83;;;14.10;;
15878;SDS011;61999;51.514;14.614;2023-02-15T01:36:41;24.23;;;14.53;;
15878;SDS011;61999;51.514;14.614;2023-02-15T01:39:08;26.13;;;15.60;;
15878;SDS011;61999;51.514;14.614;2023-02-15T01:41:37;29.20;;;16.87;;
15878;SDS011;61999;51.514;14.614;2023-02-15T01:47:16;27.90;;;18.10;;
15878;SDS011;61999;51.514;14.614;2023-02-15T01:49:58;29.73;;;17.53;;
15878;SDS011;61999;51.514;14.614;2023-02-15T01:52:35;28.93;;;17.50;;
15878;SDS011;61999;51.514;14.614;2023-02-15T01:55:09;30.37;;;17.87;;
15878;SDS011;61999;51.514;14.614;2023-02-15T01:57:39;31.87;;;19.23;;
15878;SDS011;61999;51.514;14.614;2023-02-15T02:00:08;34.97;;;19.73;;
15878;SDS011;61999;51.514;14.614;2023-02-15T02:02:38;34.33;;;19.23;;
15878;SDS011;61999;51.514;14.614;2023-02-15T02:05:09;29.10;;;16.50;;
15878;SDS011;61999;51.514;14.614;2023-02-15T02:07:38;25.97;;;15.00;;
15878;SDS011;61999;51.514;14.614;2023-02-15T02:10:12;25.17;;;14.40;;
15878;SDS011;61999;51.514;14.614;2023-02-15T02:12:45;27.07;;;14.13;;
15878;SDS011;61999;51.514;14.614;2023-02-15T02:15:18;24.77;;;14.43;;
15878;SDS011;61999;51.514;14.614;2023-02-15T02:17:56;30.37;;;15.57;;
15878;SDS011;61999;51.514;14.614;2023-02-15T02:20:43;28.60;;;15.97;;
15878;SDS011;61999;51.514;14.614;2023-02-15T02:23:39;25.53;;;15.23;;
15878;SDS011;61999;51.514;14.614;2023-02-15T02:33:33;27.23;;;15.57;;
15878;SDS011;61999;51.514;14.614;2023-02-15T02:36:15;27.43;;;15.17;;
15878;SDS011;61999;51.514;14.614;2023-02-15T02:38:59;30.27;;;15.80;;
15878;SDS011;61999;51.514;14.614;2023-02-15T02:41:52;26.40;;;14.43;;
15878;SDS011;61999;51.514;14.614;2023-02-15T02:44:31;27.70;;;14.13;;
15878;SDS011;61999;51.514;14.614;2023-02-15T02:47:10;27.80;;;13.07;;
15878;SDS011;61999;51.514;14.614;2023-02-15T02:49:47;25.63;;;14.97;;
15878;SDS011;61999;51.514;14.614;2023-02-15T02:52:35;24.00;;;14.37;;
15878;SDS011;61999;51.514;14.614;2023-02-15T02:55:10;28.20;;;15.23;;
15878;SDS011;61999;51.514;14.614;2023-02-15T02:57:46;26.90;;;15.40;;
15878;SDS011;61999;51.514;14.614;2023-02-15T03:00:20;30.83;;;16.43;;
15878;SDS011;61999;51.514;14.614;2023-02-15T03:02:54;27.47;;;15.97;;
15878;SDS011;61999;51.514;14.614;2023-02-15T03:09:39;27.07;;;14.17;;
15878;SDS011;61999;51.514;14.614;2023-02-15T03:12:16;27.33;;;15.07;;
15878;SDS011;61999;51.514;14.614;2023-02-15T03:14:49;27.77;;;13.67;;
15878;SDS011;61999;51.514;14.614;2023-02-15T03:17:22;28.20;;;15.40;;
15878;SDS011;61999;51.514;14.614;2023-02-15T03:19:55;26.87;;;14.93;;
15878;SDS011;61999;51.514;14.614;2023-02-15T03:22:29;27.40;;;14.43;;
15878;SDS011;61999;51.514;14.614;2023-02-15T03:25:06;26.60;;;14.50;;
15878;SDS011;61999;51.514;14.614;2023-02-15T03:27:43;23.80;;;13.60;;
15878;SDS011;61999;51.514;14.614;2023-02-15T03:30:18;25.77;;;14.03;;
15878;SDS011;61999;51.514;14.614;2023-02-15T03:32:50;23.60;;;13.60;;
15878;SDS011;61999;51.514;14.614;2023-02-15T03:35:20;26.47;;;14.43;;
15878;SDS011;61999;51.514;14.614;2023-02-15T03:37:55;25.53;;;14.43;;
15878;SDS011;61999;51.514;14.614;2023-02-15T03:40:29;22.20;;;13.40;;
15878;SDS011;61999;51.514;14.614;2023-02-15T03:43:23;25.83;;;13.40;;
15878;SDS011;61999;51.514;14.614;2023-02-15T03:46:03;25.17;;;15.00;;
15878;SDS011;61999;51.514;14.614;2023-02-15T03:48:40;28.17;;;15.33;;
15878;SDS011;61999;51.514;14.614;2023-02-15T03:51:14;27.13;;;13.53;;
15878;SDS011;61999;51.514;14.614;2023-02-15T03:54:05;27.77;;;14.90;;
15878;SDS011;61999;51.514;14.614;2023-02-15T03:56:38;34.53;;;20.20;;
15878;SDS011;61999;51.514;14.614;2023-02-15T03:59:28;32.33;;;17.63;;
15878;SDS011;61999;51.514;14.614;2023-02-15T04:02:15;27.70;;;15.87;;
15878;SDS011;61999;51.514;14.614;2023-02-15T04:04:51;28.30;;;15.37;;
15878;SDS011;61999;51.514;14.614;2023-02-15T04:07:19;25.63;;;14.27;;
15878;SDS011;61999;51.514;14.614;2023-02-15T04:09:47;27.97;;;15.27;;
15878;SDS011;61999;51.514;14.614;2023-02-15T04:12:33;25.30;;;14.57;;
15878;SDS011;61999;51.514;14.614;2023-02-15T04:15:01;23.23;;;14.00;;
15878;SDS011;61999;51.514;14.614;2023-02-15T04:17:47;25.80;;;14.53;;
15878;SDS011;61999;51.514;14.614;2023-02-15T04:20:15;25.90;;;14.27;;
15878;SDS011;61999;51.514;14.614;2023-02-15T04:23:01;24.90;;;14.07;;
15878;SDS011;61999;51.514;14.614;2023-02-15T04:25:51;28.23;;;15.27;;
15878;SDS011;61999;51.514;14.614;2023-02-15T04:28:20;25.20;;;13.67;;
15878;SDS011;61999;51.514;14.614;2023-02-15T04:30:48;28.27;;;14.50;;
15878;SDS011;61999;51.514;14.614;2023-02-15T04:33:16;26.03;;;14.27;;
15878;SDS011;61999;51.514;14.614;2023-02-15T04:35:44;26.07;;;14.37;;
15878;SDS011;61999;51.514;14.614;2023-02-15T04:38:12;32.40;;;16.93;;
15878;SDS011;61999;51.514;14.614;2023-02-15T04:40:40;49.53;;;20.70;;
15878;SDS011;61999;51.514;14.614;2023-02-15T04:43:08;43.90;;;20.33;;
15878;SDS011;61999;51.514;14.614;2023-02-15T04:45:37;41.20;;;19.43;;
15878;SDS011;61999;51.514;14.614;2023-02-15T04:48:05;45.17;;;20.23;;
15878;SDS011;61999;51.514;14.614;2023-02-15T04:50:34;42.20;;;19.90;;
15878;SDS011;61999;51.514;14.614;2023-02-15T04:53:02;41.90;;;20.80;;
15878;SDS011;61999;51.514;14.614;2023-02-15T04:55:30;45.07;;;19.83;;
15878;SDS011;61999;51.514;14.614;2023-02-15T04:57:58;37.43;;;18.03;;
15878;SDS011;61999;51.514;14.614;2023-02-15T05:00:26;37.13;;;17.80;;
15878;SDS011;61999;51.514;14.614;2023-02-15T05:02:56;34.10;;;17.73;;
15878;SDS011;61999;51.514;14.614;2023-02-15T05:05:23;30.40;;;18.53;;
15878;SDS011;61999;51.514;14.614;2023-02-15T05:07:51;30.47;;;17.30;;
15878;SDS011;61999;51.514;14.614;2023-02-15T05:10:19;31.63;;;17.80;;
15878;SDS011;61999;51.514;14.614;2023-02-15T05:12:48;39.73;;;22.20;;
15878;SDS011;61999;51.514;14.614;2023-02-15T05:15:15;36.60;;;19.90;;
15878;SDS011;61999;51.514;14.614;2023-02-15T05:17:43;36.97;;;22.03;;
15878;SDS011;61999;51.514;14.614;2023-02-15T05:20:13;41.90;;;22.67;;
15878;SDS011;61999;51.514;14.614;2023-02-15T05:22:41;39.57;;;20.23;;
15878;SDS011;61999;51.514;14.614;2023-02-15T05:25:09;36.37;;;21.07;;
15878;SDS011;61999;51.514;14.614;2023-02-15T05:27:54;42.70;;;23.97;;
15878;SDS011;61999;51.514;14.614;2023-02-15T05:30:40;46.73;;;25.77;;
15878;SDS011;61999;51.514;14.614;2023-02-15T05:33:09;45.10;;;26.93;;
15878;SDS011;61999;51.514;14.614;2023-02-15T05:35:38;44.67;;;25.27;;
15878;SDS011;61999;51.514;14.614;2023-02-15T05:38:07;46.63;;;25.67;;
15878;SDS011;61999;51.514;14.614;2023-02-15T05:40:38;53.03;;;28.90;;
15878;SDS011;61999;51.514;14.614;2023-02-15T05:43:07;58.87;;;30.50;;
15878;SDS011;61999;51.514;14.614;2023-02-15T05:45:34;56.93;;;29.87;;
15878;SDS011;61999;51.514;14.614;2023-02-15T05:48:02;42.50;;;24.53;;
15878;SDS011;61999;51.514;14.614;2023-02-15T05:50:30;49.47;;;25.13;;
15878;SDS011;61999;51.514;14.614;2023-02-15T05:53:01;39.93;;;22.47;;
15878;SDS011;61999;51.514;14.614;2023-02-15T05:55:33;40.87;;;21.83;;
15878;SDS011;61999;51.514;14.614;2023-02-15T05:58:04;40.00;;;22.67;;
15878;SDS011;61999;51.514;14.614;2023-02-15T06:00:32;38.27;;;20.63;;
15878;SDS011;61999;51.514;14.614;2023-02-15T06:03:02;35.70;;;19.90;;
15878;SDS011;61999;51.514;14.614;2023-02-15T06:05:31;32.50;;;18.27;;
15878;SDS011;61999;51.514;14.614;2023-02-15T06:08:00;36.37;;;20.10;;
15878;SDS011;61999;51.514;14.614;2023-02-15T06:10:31;40.27;;;22.37;;
15878;SDS011;61999;51.514;14.614;2023-02-15T06:12:59;41.03;;;23.57;;
15878;SDS011;61999;51.514;14.614;2023-02-15T06:15:27;44.33;;;26.10;;
15878;SDS011;61999;51.514;14.614;2023-02-15T06:17:55;43.17;;;26.27;;
15878;SDS011;61999;51.514;14.614;2023-02-15T06:20:22;44.73;;;26.43;;
15878;SDS011;61999;51.514;14.614;2023-02-15T06:22:50;47.63;;;26.30;;
15878;SDS011;61999;51.514;14.614;2023-02-15T06:25:20;39.07;;;22.07;;
15878;SDS011;61999;51.514;14.614;2023-02-15T06:27:47;41.63;;;21.93;;
15878;SDS011;61999;51.514;14.614;2023-02-15T06:30:16;40.37;;;22.73;;
15878;SDS011;61999;51.514;14.614;2023-02-15T06:32:44;39.77;;;22.47;;
15878;SDS011;61999;51.514;14.614;2023-02-15T06:35:12;43.20;;;23.30;;
15878;SDS011;61999;51.514;14.614;2023-02-15T06:37:40;42.17;;;23.03;;
15878;SDS011;61999;51.514;14.614;2023-02-15T06:40:08;41.03;;;22.93;;
15878;SDS011;61999;51.514;14.614;2023-02-15T06:42:38;43.83;;;23.57;;
15878;SDS011;61999;51.514;14.614;2023-02-15T06:45:06;44.37;;;23.10;;
15878;SDS011;61999;51.514;14.614;2023-02-15T06:47:35;44.10;;;23.50;;
15878;SDS011;61999;51.514;14.614;2023-02-15T06:50:04;42.70;;;22.40;;
15878;SDS011;61999;51.514;14.614;2023-02-15T06:52:33;43.97;;;20.37;;
15878;SDS011;61999;51.514;14.614;2023-02-15T06:55:01;40.33;;;21.93;;
15878;SDS011;61999;51.514;14.614;2023-02-15T06:57:30;41.87;;;22.50;;
15878;SDS011;61999;51.514;14.614;2023-02-15T07:00:00;36.73;;;20.67;;
15878;SDS011;61999;51.514;14.614;2023-02-15T07:02:31;38.97;;;20.03;;
15878;SDS011;61999;51.514;14.614;2023-02-15T07:05:00;37.00;;;20.97;;
15878;SDS011;61999;51.514;14.614;2023-02-15T07:07:28;47.30;;;25.63;;
15878;SDS011;61999;51.514;14.614;2023-02-15T07:09:55;48.60;;;24.23;;
15878;SDS011;61999;51.514;14.614;2023-02-15T07:12:23;47.77;;;27.33;;
15878;SDS011;61999;51.514;14.614;2023-02-15T07:15:10;50.03;;;24.47;;
15878;SDS011;61999;51.514;14.614;2023-02-15T07:17:40;49.23;;;24.87;;
15878;SDS011;61999;51.514;14.614;2023-02-15T07:20:10;55.90;;;28.67;;
15878;SDS011;61999;51.514;14.614;2023-02-15T07:22:41;48.07;;;25.83;;
15878;SDS011;61999;51.514;14.614;2023-02-15T07:25:10;44.83;;;25.57;;
15878;SDS011;61999;51.514;14.614;2023-02-15T07:27:39;48.77;;;26.77;;
15878;SDS011;61999;51.514;14.614;2023-02-15T07:30:08;45.50;;;24.70;;
15878;SDS011;61999;51.514;14.614;2023-02-15T07:32:41;43.03;;;24.37;;
15878;SDS011;61999;51.514;14.614;2023-02-15T07:35:23;41.07;;;23.47;;
15878;SDS011;61999;51.514;14.614;2023-02-15T07:37:52;37.53;;;23.17;;
15878;SDS011;61999;51.514;14.614;2023-02-15T07:40:19;43.33;;;24.40;;
15878;SDS011;61999;51.514;14.614;2023-02-15T07:42:49;42.83;;;25.37;;
15878;SDS011;61999;51.514;14.614;2023-02-15T07:45:21;44.17;;;28.13;;
15878;SDS011;61999;51.514;14.614;2023-02-15T07:47:49;43.67;;;26.40;;
15878;SDS011;61999;51.514;14.614;2023-02-15T07:50:17;46.73;;;28.30;;
15878;SDS011;61999;51.514;14.614;2023-02-15T07:52:45;45.10;;;27.63;;
15878;SDS011;61999;51.514;14.614;2023-02-15T07:55:13;43.93;;;27.33;;
15878;SDS011;61999;51.514;14.614;2023-02-15T07:57:42;43.83;;;27.90;;
15878;SDS011;61999;51.514;14.614;2023-02-15T08:00:11;41.33;;;26.43;;
15878;SDS011;61999;51.514;14.614;2023-02-15T08:02:45;42.67;;;27.47;;
15878;SDS011;61999;51.514;14.614;2023-02-15T08:05:36;42.70;;;26.27;;
15878;SDS011;61999;51.514;14.614;2023-02-15T08:08:04;38.70;;;25.83;;
15878;SDS011;61999;51.514;14.614;2023-02-15T08:10:32;36.80;;;24.50;;
15878;SDS011;61999;51.514;14.614;2023-02-15T08:13:18;31.23;;;21.50;;
15878;SDS011;61999;51.514;14.614;2023-02-15T08:15:47;38.37;;;25.77;;
15878;SDS011;61999;51.514;14.614;2023-02-15T08:18:18;35.03;;;23.97;;
15878;SDS011;61999;51.514;14.614;2023-02-15T08:20:48;33.57;;;22.50;;
15878;SDS011;61999;51.514;14.614;2023-02-15T08:23:16;34.07;;;23.10;;
15878;SDS011;61999;51.514;14.614;2023-02-15T08:25:44;33.43;;;22.87;;
15878;SDS011;61999;51.514;14.614;2023-02-15T08:28:12;35.07;;;22.77;;
15878;SDS011;61999;51.514;14.614;2023-02-15T08:30:40;39.53;;;24.33;;
15878;SDS011;61999;51.514;14.614;2023-02-15T08:33:08;35.20;;;21.67;;
15878;SDS011;61999;51.514;14.614;2023-02-15T08:35:37;33.10;;;23.70;;
15878;SDS011;61999;51.514;14.614;2023-02-15T08:38:05;30.77;;;21.87;;
15878;SDS011;61999;51.514;14.614;2023-02-15T08:40:33;31.90;;;23.37;;
15878;SDS011;61999;51.514;14.614;2023-02-15T08:43:04;27.53;;;21.53;;
15878;SDS011;61999;51.514;14.614;2023-02-15T08:45:33;30.17;;;21.10;;
15878;SDS011;61999;51.514;14.614;2023-02-15T08:48:01;29.60;;;21.87;;
15878;SDS011;61999;51.514;14.614;2023-02-15T08:50:28;29.23;;;21.67;;
15878;SDS011;61999;51.514;14.614;2023-02-15T08:52:58;31.13;;;22.70;;
15878;SDS011;61999;51.514;14.614;2023-02-15T08:55:25;29.73;;;20.63;;
15878;SDS011;61999;51.514;14.614;2023-02-15T08:57:54;29.80;;;20.83;;
15878;SDS011;61999;51.514;14.614;2023-02-15T09:00:22;29.73;;;22.43;;
15878;SDS011;61999;51.514;14.614;2023-02-15T09:02:51;33.17;;;22.87;;
15878;SDS011;61999;51.514;14.614;2023-02-15T09:05:19;27.80;;;21.63;;
15878;SDS011;61999;51.514;14.614;2023-02-15T09:07:47;27.17;;;20.67;;
15878;SDS011;61999;51.514;14.614;2023-02-15T09:10:16;28.30;;;21.40;;
15878;SDS011;61999;51.514;14.614;2023-02-15T09:12:44;26.93;;;20.53;;
15878;SDS011;61999;51.514;14.614;2023-02-15T09:15:12;28.77;;;21.13;;
15878;SDS011;61999;51.514;14.614;2023-02-15T09:17:40;28.80;;;20.70;;
15878;SDS011;61999;51.514;14.614;2023-02-15T09:20:08;24.53;;;19.13;;
15878;SDS011;61999;51.514;14.614;2023-02-15T09:22:36;29.07;;;22.23;;
15878;SDS011;61999;51.514;14.614;2023-02-15T09:25:04;26.87;;;20.73;;
15878;SDS011;61999;51.514;14.614;2023-02-15T09:27:34;27.17;;;20.13;;
15878;SDS011;61999;51.514;14.614;2023-02-15T09:30:02;25.63;;;19.93;;
15878;SDS011;61999;51.514;14.614;2023-02-15T09:32:31;27.90;;;21.40;;
15878;SDS011;61999;51.514;14.614;2023-02-15T09:34:59;25.70;;;20.17;;
15878;SDS011;61999;51.514;14.614;2023-02-15T09:37:27;27.00;;;21.03;;
15878;SDS011;61999;51.514;14.614;2023-02-15T09:39:55;26.07;;;19.90;;
15878;SDS011;61999;51.514;14.614;2023-02-15T09:42:30;26.97;;;20.43;;
15878;SDS011;61999;51.514;14.614;2023-02-15T09:45:24;26.50;;;20.17;;
15878;SDS011;61999;51.514;14.614;2023-02-15T09:48:21;24.40;;;19.63;;
15878;SDS011;61999;51.514;14.614;2023-02-15T09:51:09;23.23;;;18.60;;
15878;SDS011;61999;51.514;14.614;2023-02-15T09:53:56;26.47;;;20.23;;
15878;SDS011;61999;51.514;14.614;2023-02-15T09:56:45;24.17;;;18.50;;
15878;SDS011;61999;51.514;14.614;2023-02-15T09:59:24;26.43;;;21.13;;
15878;SDS011;61999;51.514;14.614;2023-02-15T10:02:09;20.80;;;17.57;;
15878;SDS011;61999;51.514;14.614;2023-02-15T10:05:01;21.03;;;17.90;;
15878;SDS011;61999;51.514;14.614;2023-02-15T10:07:56;22.83;;;18.23;;
15878;SDS011;61999;51.514;14.614;2023-02-15T10:10:55;20.80;;;16.93;;
15878;SDS011;61999;51.514;14.614;2023-02-15T10:13:52;23.50;;;17.63;;
15878;SDS011;61999;51.514;14.614;2023-02-15T10:16:42;23.73;;;18.90;;
15878;SDS011;61999;51.514;14.614;2023-02-15T10:19:25;20.37;;;17.80;;
15878;SDS011;61999;51.514;14.614;2023-02-15T10:22:08;19.90;;;17.50;;
15878;SDS011;61999;51.514;14.614;2023-02-15T10:24:57;19.43;;;16.73;;
15878;SDS011;61999;51.514;14.614;2023-02-15T10:27:45;19.53;;;16.13;;
15878;SDS011;61999;51.514;14.614;2023-02-15T10:30:16;21.53;;;17.53;;
15878;SDS011;61999;51.514;14.614;2023-02-15T10:33:02;22.13;;;18.83;;
15878;SDS011;61999;51.514;14.614;2023-02-15T10:35:37;19.97;;;17.67;;
15878;SDS011;61999;51.514;14.614;2023-02-15T10:38:20;21.37;;;18.67;;
15878;SDS011;61999;51.514;14.614;2023-02-15T10:41:04;19.93;;;16.40;;
15878;SDS011;61999;51.514;14.614;2023-02-15T10:43:57;21.37;;;17.33;;
15878;SDS011;61999;51.514;14.614;2023-02-15T10:46:55;21.23;;;17.77;;
15878;SDS011;61999;51.514;14.614;2023-02-15T10:52:47;19.17;;;15.90;;
15878;SDS011;61999;51.514;14.614;2023-02-15T10:55:38;21.27;;;16.60;;
15878;SDS011;61999;51.514;14.614;2023-02-15T10:58:22;22.07;;;16.87;;
15878;SDS011;61999;51.514;14.614;2023-02-15T11:01:07;21.07;;;18.00;;
15878;SDS011;61999;51.514;14.614;2023-02-15T11:03:51;19.83;;;16.50;;
15878;SDS011;61999;51.514;14.614;2023-02-15T11:06:44;19.73;;;17.00;;
15878;SDS011;61999;51.514;14.614;2023-02-15T11:09:19;19.33;;;16.23;;
15878;SDS011;61999;51.514;14.614;2023-02-15T11:11:52;19.40;;;16.07;;
15878;SDS011;61999;51.514;14.614;2023-02-15T11:14:30;20.33;;;17.03;;
15878;SDS011;61999;51.514;14.614;2023-02-15T11:17:05;21.13;;;17.87;;
15878;SDS011;61999;51.514;14.614;2023-02-15T11:19:41;21.13;;;17.57;;
15878;SDS011;61999;51.514;14.614;2023-02-15T11:22:22;20.13;;;16.13;;
15878;SDS011;61999;51.514;14.614;2023-02-15T11:24:52;19.33;;;17.33;;
15878;SDS011;61999;51.514;14.614;2023-02-15T11:27:24;18.90;;;16.93;;
15878;SDS011;61999;51.514;14.614;2023-02-15T11:29:57;18.60;;;16.03;;
15878;SDS011;61999;51.514;14.614;2023-02-15T11:32:30;17.80;;;15.87;;
15878;SDS011;61999;51.514;14.614;2023-02-15T11:35:03;19.80;;;17.23;;
15878;SDS011;61999;51.514;14.614;2023-02-15T11:37:46;19.07;;;16.83;;
15878;SDS011;61999;51.514;14.614;2023-02-15T11:40:19;20.73;;;17.97;;
15878;SDS011;61999;51.514;14.614;2023-02-15T11:42:51;17.23;;;15.30;;
15878;SDS011;61999;51.514;14.614;2023-02-15T11:45:26;19.10;;;17.10;;
15878;SDS011;61999;51.514;14.614;2023-02-15T11:47:57;18.33;;;16.03;;
15878;SDS011;61999;51.514;14.614;2023-02-15T11:50:27;20.97;;;18.67;;
15878;SDS011;61999;51.514;14.614;2023-02-15T11:53:00;17.30;;;15.43;;
15878;SDS011;61999;51.514;14.614;2023-02-15T11:55:32;17.33;;;14.87;;
15878;SDS011;61999;51.514;14.614;2023-02-15T11:58:02;18.17;;;16.07;;
15878;SDS011;61999;51.514;14.614;2023-02-15T12:00:44;18.17;;;15.70;;
15878;SDS011;61999;51.514;14.614;2023-02-15T12:03:18;18.43;;;16.47;;
15878;SDS011;61999;51.514;14.614;2023-02-15T12:05:56;19.30;;;17.50;;
15878;SDS011;61999;51.514;14.614;2023-02-15T12:08:34;19.33;;;17.43;;
15878;SDS011;61999;51.514;14.614;2023-02-15T12:11:07;18.07;;;16.33;;
15878;SDS011;61999;51.514;14.614;2023-02-15T12:13:53;19.20;;;17.13;;
15878;SDS011;61999;51.514;14.614;2023-02-15T12:16:23;18.03;;;16.13;;
15878;SDS011;61999;51.514;14.614;2023-02-15T12:18:54;19.43;;;17.53;;
15878;SDS011;61999;51.514;14.614;2023-02-15T12:21:27;17.47;;;15.50;;
15878;SDS011;61999;51.514;14.614;2023-02-15T12:24:02;19.50;;;17.63;;
15878;SDS011;61999;51.514;14.614;2023-02-15T12:26:55;17.73;;;16.03;;
15878;SDS011;61999;51.514;14.614;2023-02-15T12:29:30;19.40;;;17.50;;
15878;SDS011;61999;51.514;14.614;2023-02-15T12:32:08;16.43;;;14.20;;
15878;SDS011;61999;51.514;14.614;2023-02-15T12:34:44;18.47;;;16.60;;
15878;SDS011;61999;51.514;14.614;2023-02-15T12:37:17;17.97;;;15.87;;
15878;SDS011;61999;51.514;14.614;2023-02-15T12:39:52;17.97;;;16.17;;
15878;SDS011;61999;51.514;14.614;2023-02-15T12:42:23;17.30;;;15.70;;
15878;SDS011;61999;51.514;14.614;2023-02-15T12:44:54;17.30;;;15.50;;
15878;SDS011;61999;51.514;14.614;2023-02-15T12:47:26;17.30;;;15.60;;
15878;SDS011;61999;51.514;14.614;2023-02-15T12:50:04;17.27;;;15.50;;
15878;SDS011;61999;51.514;14.614;2023-02-15T12:52:45;18.73;;;16.83;;
15878;SDS011;61999;51.514;14.614;2023-02-15T12:55:20;19.23;;;17.33;;
15878;SDS011;61999;51.514;14.614;2023-02-15T12:58:07;16.50;;;14.90;;
15878;SDS011;61999;51.514;14.614;2023-02-15T13:00:45;18.37;;;16.57;;
15878;SDS011;61999;51.514;14.614;2023-02-15T13:03:17;17.17;;;15.43;;
15878;SDS011;61999;51.514;14.614;2023-02-15T13:05:50;17.87;;;15.97;;
15878;SDS011;61999;51.514;14.614;2023-02-15T13:08:26;18.50;;;16.50;;
15878;SDS011;61999;51.514;14.614;2023-02-15T13:11:00;18.60;;;16.37;;
15878;SDS011;61999;51.514;14.614;2023-02-15T13:13:34;16.80;;;15.10;;
15878;SDS011;61999;51.514;14.614;2023-02-15T13:16:20;19.53;;;17.63;;
15878;SDS011;61999;51.514;14.614;2023-02-15T13:18:57;17.97;;;15.97;;
15878;SDS011;61999;51.514;14.614;2023-02-15T13:21:32;20.43;;;18.43;;
15878;SDS011;61999;51.514;14.614;2023-02-15T13:24:06;19.27;;;17.27;;
15878;SDS011;61999;51.514;14.614;2023-02-15T13:26:49;19.23;;;17.43;;
15878;SDS011;61999;51.514;14.614;2023-02-15T13:29:26;16.77;;;15.00;;
15878;SDS011;61999;51.514;14.614;2023-02-15T13:31:57;18.93;;;17.00;;
15878;SDS011;61999;51.514;14.614;2023-02-15T13:34:35;18.30;;;16.40;;
15878;SDS011;61999;51.514;14.614;2023-02-15T13:37:08;18.40;;;16.57;;
15878;SDS011;61999;51.514;14.614;2023-02-15T13:39:47;18.37;;;16.40;;
15878;SDS011;61999;51.514;14.614;2023-02-15T13:42:24;18.67;;;16.67;;
15878;SDS011;61999;51.514;14.614;2023-02-15T13:45:07;19.73;;;17.63;;
15878;SDS011;61999;51.514;14.614;2023-02-15T13:47:59;20.00;;;18.00;;
15878;SDS011;61999;51.514;14.614;2023-02-15T13:53:41;19.47;;;16.90;;
15878;SDS011;61999;51.514;14.614;2023-02-15T13:56:35;20.37;;;18.27;;
15878;SDS011;61999;51.514;14.614;2023-02-15T13:59:26;21.37;;;17.10;;
15878;SDS011;61999;51.514;14.614;2023-02-15T14:02:27;20.13;;;18.00;;
15878;SDS011;61999;51.514;14.614;2023-02-15T14:05:19;19.33;;;17.37;;
15878;SDS011;61999;51.514;14.614;2023-02-15T14:08:03;21.83;;;19.53;;
15878;SDS011;61999;51.514;14.614;2023-02-15T14:10:44;20.53;;;18.33;;
15878;SDS011;61999;51.514;14.614;2023-02-15T14:13:38;19.43;;;17.23;;
15878;SDS011;61999;51.514;14.614;2023-02-15T14:16:48;18.90;;;17.00;;
15878;SDS011;61999;51.514;14.614;2023-02-15T14:19:33;18.60;;;16.70;;
15878;SDS011;61999;51.514;14.614;2023-02-15T14:22:10;18.73;;;16.60;;
15878;SDS011;61999;51.514;14.614;2023-02-15T14:24:53;20.57;;;18.47;;
15878;SDS011;61999;51.514;14.614;2023-02-15T14:27:39;22.00;;;19.77;;
15878;SDS011;61999;51.514;14.614;2023-02-15T14:30:22;19.30;;;17.30;;
15878;SDS011;61999;51.514;14.614;2023-02-15T14:32:57;19.63;;;16.90;;
15878;SDS011;61999;51.514;14.614;2023-02-15T14:35:33;22.97;;;20.47;;
15878;SDS011;61999;51.514;14.614;2023-02-15T14:38:02;19.23;;;17.33;;
15878;SDS011;61999;51.514;14.614;2023-02-15T14:40:45;20.30;;;18.10;;
15878;SDS011;61999;51.514;14.614;2023-02-15T14:43:31;21.47;;;19.37;;
15878;SDS011;61999;51.514;14.614;2023-02-15T14:46:17;23.13;;;20.43;;
15878;SDS011;61999;51.514;14.614;2023-02-15T14:48:56;22.23;;;19.97;;
15878;SDS011;61999;51.514;14.614;2023-02-15T14:51:53;20.60;;;18.07;;
15878;SDS011;61999;51.514;14.614;2023-02-15T14:54:52;24.43;;;21.13;;
15878;SDS011;61999;51.514;14.614;2023-02-15T14:57:32;23.03;;;20.67;;
15878;SDS011;61999;51.514;14.614;2023-02-15T15:00:05;24.67;;;22.17;;
15878;SDS011;61999;51.514;14.614;2023-02-15T15:03:09;23.07;;;20.67;;
15878;SDS011;61999;51.514;14.614;2023-02-15T15:05:50;42.60;;;32.63;;
15878;SDS011;61999;51.514;14.614;2023-02-15T15:08:26;35.17;;;29.33;;
15878;SDS011;61999;51.514;14.614;2023-02-15T15:17:09;23.23;;;20.57;;